createdAt,value
2022-10-06T00:01:14.797Z,61.88
2022-10-06T00:03:43.795Z,64.51
2022-10-06T00:06:13.718Z,63.96
2022-10-06T00:08:43.234Z,62.03
2022-10-06T00:11:12.806Z,63.83
2022-10-06T00:13:41.210Z,62.68
2022-10-06T00:16:17.376Z,61.72
2022-10-06T00:18:45.878Z,63.27
2022-10-06T00:21:13.798Z,64.63
2022-10-06T00:23:44.565Z,62.23
2022-10-06T00:26:16.899Z,62.66
2022-10-06T00:28:45.575Z,62.90
2022-10-06T00:31:15.386Z,63.04
2022-10-06T00:33:43.573Z,62.57
2022-10-06T00:36:11.469Z,62.71
2022-10-06T00:38:39.534Z,62.34
2022-10-06T00:41:13.434Z,64.45
2022-10-06T00:43:48.795Z,62.99
2022-10-06T00:46:23.295Z,59.71
2022-10-06T00:48:59.787Z,64.40
2022-10-06T00:51:29.092Z,61.53
2022-10-06T00:53:58.056Z,62.63
2022-10-06T00:56:26.728Z,62.36
2022-10-06T00:58:54.780Z,62.79
2022-10-06T01:01:24.754Z,60.78
2022-10-06T01:03:56.750Z,62.40
2022-10-06T01:06:24.849Z,64.20
2022-10-06T01:08:53.495Z,62.89
2022-10-06T01:11:21.630Z,61.70
2022-10-06T01:13:49.742Z,63.39
2022-10-06T01:16:23.341Z,61.26
2022-10-06T01:18:56.129Z,62.75
2022-10-06T01:21:32.311Z,62.72
2022-10-06T01:24:05.075Z,62.47
2022-10-06T01:26:37.024Z,62.20
2022-10-06T01:29:05.375Z,61.66
2022-10-06T01:31:33.663Z,61.79
2022-10-06T01:34:01.821Z,64.00
2022-10-06T01:36:30.067Z,63.42
2022-10-06T01:38:58.005Z,63.85
2022-10-06T01:41:27.856Z,63.33
2022-10-06T01:43:56.523Z,62.34
2022-10-06T01:46:24.504Z,61.65
2022-10-06T01:48:52.842Z,63.55
2022-10-06T01:51:20.747Z,61.61
2022-10-06T01:53:48.743Z,63.00
2022-10-06T01:56:16.691Z,63.09
2022-10-06T01:58:46.138Z,60.60
2022-10-06T02:01:14.161Z,62.08
2022-10-06T02:03:42.810Z,61.20
2022-10-06T02:06:11.733Z,61.83
2022-10-06T02:08:39.951Z,61.70
2022-10-06T02:11:10.192Z,61.67
2022-10-06T02:13:46.114Z,63.09
2022-10-06T02:16:14.462Z,62.58
2022-10-06T02:18:43.830Z,61.79
2022-10-06T02:21:16.635Z,62.99
2022-10-06T02:23:44.879Z,60.75
2022-10-06T02:26:14.027Z,61.81
2022-10-06T02:28:42.215Z,60.04
2022-10-06T02:31:15.136Z,62.59
2022-10-06T02:33:44.787Z,62.46
2022-10-06T02:36:15.678Z,63.34
2022-10-06T02:38:44.660Z,61.02
2022-10-06T02:41:12.673Z,61.30
2022-10-06T02:43:41.182Z,61.66
2022-10-06T02:46:13.971Z,60.58
2022-10-06T02:48:49.129Z,62.34
2022-10-06T02:51:19.320Z,61.74
2022-10-06T02:53:49.145Z,62.06
2022-10-06T02:56:20.670Z,61.65
2022-10-06T02:58:49.368Z,62.10
2022-10-06T03:01:30.385Z,63.33
2022-10-06T03:04:02.700Z,62.72
2022-10-06T03:06:31.972Z,63.79
2022-10-06T03:09:08.155Z,62.51
2022-10-06T03:11:40.372Z,60.95
2022-10-06T03:14:10.243Z,61.46
2022-10-06T03:16:40.501Z,63.51
2022-10-06T03:19:15.334Z,63.02
2022-10-06T03:21:46.240Z,63.04
2022-10-06T03:24:16.401Z,62.68
2022-10-06T03:26:48.546Z,63.04
2022-10-06T03:29:18.128Z,64.30
2022-10-06T03:31:51.260Z,63.16
2022-10-06T03:34:21.953Z,62.38
2022-10-06T03:36:49.951Z,62.56
2022-10-06T03:39:21.699Z,60.30
2022-10-06T03:41:50.852Z,61.86
2022-10-06T03:44:18.978Z,60.22
2022-10-06T03:46:48.181Z,59.81
2022-10-06T03:49:16.263Z,60.86
2022-10-06T03:51:45.728Z,60.05
2022-10-06T03:54:21.691Z,60.20
2022-10-06T03:56:51.663Z,61.14
2022-10-06T03:59:20.952Z,60.90
2022-10-06T04:01:50.251Z,59.86
2022-10-06T04:04:27.701Z,58.84
2022-10-06T04:07:02.285Z,61.35
2022-10-06T04:09:30.292Z,60.02
2022-10-06T04:11:58.530Z,61.06
2022-10-06T04:14:26.581Z,58.37
2022-10-06T04:16:57.119Z,59.33
2022-10-06T04:19:32.754Z,62.27
2022-10-06T04:22:02.125Z,61.93
2022-10-06T04:24:31.161Z,59.90
2022-10-06T04:27:19.947Z,59.68
2022-10-06T04:29:56.360Z,61.37
2022-10-06T04:32:24.625Z,60.56
2022-10-06T04:34:53.066Z,60.89
2022-10-06T04:37:22.467Z,60.87
2022-10-06T04:39:50.417Z,60.50
2022-10-06T04:42:19.067Z,61.71
2022-10-06T04:44:46.946Z,59.62
2022-10-06T04:47:15.213Z,62.68
2022-10-06T04:49:43.157Z,62.70
2022-10-06T04:52:11.425Z,61.89
2022-10-06T04:54:41.999Z,61.13
2022-10-06T04:57:10.395Z,61.21
2022-10-06T04:59:56.292Z,60.22
2022-10-06T05:02:26.010Z,60.88
2022-10-06T05:04:56.145Z,60.20
2022-10-06T05:07:24.815Z,60.53
2022-10-06T05:09:55.046Z,59.78
2022-10-06T05:12:22.820Z,61.49
2022-10-06T05:14:51.130Z,62.96
2022-10-06T05:17:19.063Z,61.52
2022-10-06T05:19:48.603Z,62.45
2022-10-06T05:22:16.417Z,63.28
2022-10-06T05:24:44.279Z,62.95
2022-10-06T05:27:14.174Z,63.44
2022-10-06T05:29:42.022Z,63.39
2022-10-06T05:32:10.426Z,63.54
2022-10-06T05:34:38.630Z,63.04
2022-10-06T05:37:07.084Z,63.48
2022-10-06T05:39:35.795Z,60.45
2022-10-06T05:42:03.847Z,61.80
2022-10-06T05:44:33.661Z,60.95
2022-10-06T05:47:06.092Z,62.61
2022-10-06T05:49:33.926Z,61.67
2022-10-06T05:52:04.357Z,58.69
2022-10-06T05:54:34.665Z,59.69
2022-10-06T05:57:02.747Z,63.02
2022-10-06T05:59:34.387Z,58.99
2022-10-06T06:02:04.002Z,62.26
2022-10-06T06:04:36.010Z,58.34
2022-10-06T06:07:03.837Z,59.74
2022-10-06T06:09:31.540Z,61.43
2022-10-06T06:12:04.394Z,62.19
2022-10-06T06:15:12.488Z,61.82
2022-10-06T06:17:48.885Z,61.41
2022-10-06T06:20:17.177Z,58.24
2022-10-06T06:22:44.933Z,58.48
2022-10-06T06:25:13.896Z,62.19
2022-10-06T06:27:43.954Z,61.04
2022-10-06T06:30:14.019Z,62.32
2022-10-06T06:32:42.042Z,60.59
2022-10-06T06:35:10.430Z,62.59
2022-10-06T06:37:38.532Z,61.94
2022-10-06T06:40:07.182Z,60.94
2022-10-06T06:42:38.364Z,62.40
2022-10-06T06:45:27.702Z,60.56
2022-10-06T06:48:24.250Z,61.26
2022-10-06T06:50:59.263Z,60.47
2022-10-06T06:53:29.988Z,60.47
2022-10-06T06:56:00.138Z,60.27
2022-10-06T06:58:28.471Z,61.18
2022-10-06T07:01:04.710Z,59.64
2022-10-06T07:03:56.057Z,61.47
2022-10-06T07:06:23.547Z,61.33
2022-10-06T07:08:56.273Z,61.02
2022-10-06T07:11:25.073Z,60.26
2022-10-06T07:13:53.981Z,60.89
2022-10-06T07:16:41.307Z,61.64
2022-10-06T07:19:28.210Z,60.51
2022-10-06T07:22:15.237Z,62.09
2022-10-06T07:25:00.588Z,61.11
2022-10-06T07:27:29.275Z,61.35
2022-10-06T07:29:57.494Z,61.93
2022-10-06T07:32:27.990Z,61.01
2022-10-06T07:34:56.516Z,60.21
2022-10-06T07:37:24.447Z,60.73
2022-10-06T07:39:52.862Z,60.85
2022-10-06T07:42:20.684Z,59.90
2022-10-06T07:45:08.862Z,61.51
2022-10-06T07:47:41.202Z,61.33
2022-10-06T07:50:09.510Z,59.89
2022-10-06T07:52:39.308Z,60.52
2022-10-06T07:55:08.118Z,61.27
2022-10-06T07:57:57.552Z,60.72
2022-10-06T08:00:27.195Z,60.99
2022-10-06T08:02:56.734Z,59.75
2022-10-06T08:05:24.519Z,60.65
2022-10-06T08:07:52.878Z,60.57
2022-10-06T08:10:20.818Z,60.38
2022-10-06T08:12:48.490Z,60.80
2022-10-06T08:15:16.333Z,59.41
2022-10-06T08:17:44.076Z,59.77
2022-10-06T08:20:14.297Z,60.80
2022-10-06T08:22:42.064Z,60.44
2022-10-06T08:25:10.918Z,60.50
2022-10-06T08:27:40.418Z,59.30
2022-10-06T08:30:11.224Z,60.44
2022-10-06T08:32:39.297Z,59.66
2022-10-06T08:35:07.319Z,58.65
2022-10-06T08:37:36.437Z,59.66
2022-10-06T08:40:04.308Z,59.33
2022-10-06T08:42:36.410Z,59.56
2022-10-06T08:45:05.967Z,59.15
2022-10-06T08:47:35.750Z,59.44
2022-10-06T08:50:05.262Z,59.24
2022-10-06T08:52:48.443Z,59.13
2022-10-06T08:55:27.132Z,59.49
2022-10-06T08:58:03.871Z,58.08
2022-10-06T09:00:33.156Z,59.64
2022-10-06T09:03:01.539Z,59.19
2022-10-06T09:05:31.861Z,59.08
2022-10-06T09:08:16.592Z,58.24
2022-10-06T09:10:45.266Z,58.30
2022-10-06T09:13:20.953Z,58.95
2022-10-06T09:15:51.541Z,59.26
2022-10-06T09:18:22.613Z,58.36
2022-10-06T09:20:53.678Z,59.34
2022-10-06T09:23:42.831Z,58.65
2022-10-06T09:26:12.910Z,59.09
2022-10-06T09:28:40.896Z,56.91
2022-10-06T09:31:19.215Z,59.10
2022-10-06T09:33:47.991Z,58.51
2022-10-06T09:36:15.854Z,59.02
2022-10-06T09:38:48.801Z,58.61
2022-10-06T09:41:17.414Z,59.22
2022-10-06T09:43:52.928Z,57.79
2022-10-06T09:46:21.613Z,58.56
2022-10-06T09:48:49.419Z,58.10
2022-10-06T09:51:17.821Z,58.79
2022-10-06T09:54:06.728Z,59.22
2022-10-06T09:56:36.498Z,57.91
2022-10-06T09:59:04.289Z,58.21
2022-10-06T10:01:32.504Z,57.78
2022-10-06T10:04:19.467Z,59.19
2022-10-06T10:06:48.967Z,58.67
2022-10-06T10:09:25.031Z,57.24
2022-10-06T10:12:20.378Z,59.61
2022-10-06T10:14:48.305Z,57.46
2022-10-06T10:17:19.100Z,58.56
2022-10-06T10:19:52.997Z,57.75
2022-10-06T10:22:23.355Z,57.83
2022-10-06T10:25:00.052Z,58.52
2022-10-06T10:27:32.669Z,56.75
2022-10-06T10:30:03.478Z,58.46
2022-10-06T10:32:41.131Z,57.90
2022-10-06T10:35:16.658Z,57.01
2022-10-06T10:37:51.364Z,58.35
2022-10-06T10:40:26.275Z,58.69
2022-10-06T10:43:01.887Z,57.94
2022-10-06T10:45:34.227Z,56.99
2022-10-06T10:48:06.073Z,56.99
2022-10-06T10:50:38.676Z,56.18
2022-10-06T10:53:12.576Z,56.23
2022-10-06T10:55:45.874Z,54.79
2022-10-06T10:58:22.695Z,55.45
2022-10-06T11:00:54.670Z,56.02
2022-10-06T11:03:22.757Z,53.87
2022-10-06T11:06:16.329Z,54.47
2022-10-06T11:08:53.538Z,56.02
2022-10-06T11:11:41.004Z,55.55
2022-10-06T11:14:16.684Z,54.37
2022-10-06T11:16:53.611Z,53.01
2022-10-06T11:19:29.856Z,53.70
2022-10-06T11:22:02.863Z,52.67
2022-10-06T11:24:37.655Z,51.89
2022-10-06T11:27:25.318Z,54.24
2022-10-06T11:30:06.597Z,53.40
2022-10-06T11:32:46.359Z,53.44
2022-10-06T11:35:20.531Z,54.02
2022-10-06T11:37:54.879Z,54.60
2022-10-06T11:40:38.308Z,53.45
2022-10-06T11:43:17.113Z,53.46
2022-10-06T11:45:53.066Z,53.35
2022-10-06T11:48:27.725Z,54.22
2022-10-06T11:50:59.051Z,53.26
2022-10-06T11:53:41.941Z,53.53
2022-10-06T11:56:37.814Z,54.02
2022-10-06T11:59:31.968Z,53.26
2022-10-06T12:02:03.126Z,54.14
2022-10-06T12:04:31.312Z,55.08
2022-10-06T12:07:01.551Z,53.93
2022-10-06T12:09:41.414Z,54.45
2022-10-06T12:12:44.088Z,52.53
2022-10-06T12:18:36.854Z,53.57
2022-10-06T12:21:23.327Z,52.53
2022-10-06T12:24:18.488Z,53.23
2022-10-06T12:27:00.471Z,53.92
2022-10-06T12:29:38.896Z,54.13
2022-10-06T12:32:18.819Z,53.63
2022-10-06T12:35:12.759Z,52.54
2022-10-06T12:37:50.104Z,53.13
2022-10-06T12:40:44.124Z,53.89
2022-10-06T12:43:57.034Z,50.00
2022-10-06T12:46:50.436Z,48.71
2022-10-06T12:49:44.476Z,49.12
2022-10-06T12:52:31.400Z,49.76
2022-10-06T12:55:28.378Z,49.09
2022-10-06T12:57:56.305Z,50.90
2022-10-06T13:02:58.445Z,48.14
2022-10-06T13:05:28.313Z,48.86
2022-10-06T13:07:58.394Z,48.79
2022-10-06T13:10:29.255Z,47.57
2022-10-06T13:12:58.941Z,48.46
2022-10-06T13:18:13.001Z,47.52
2022-10-06T13:20:44.772Z,45.96
2022-10-06T13:23:31.466Z,46.06
2022-10-06T13:26:00.778Z,47.95
2022-10-06T13:28:32.130Z,45.85
2022-10-06T13:33:34.369Z,45.89
2022-10-06T13:36:03.875Z,45.48
2022-10-06T13:38:35.102Z,46.29
2022-10-06T13:41:17.007Z,45.77
2022-10-06T13:43:48.692Z,45.55
2022-10-06T13:46:20.458Z,46.06
2022-10-06T13:48:52.398Z,45.28
2022-10-06T13:51:29.878Z,45.77
2022-10-06T13:53:58.978Z,46.40
2022-10-06T13:56:35.896Z,46.23
2022-10-06T13:59:27.937Z,45.81
2022-10-06T14:01:56.634Z,44.23
2022-10-06T14:04:24.702Z,46.18
2022-10-06T14:06:57.315Z,47.19
2022-10-06T14:09:27.751Z,46.89
2022-10-06T14:12:04.980Z,47.35
2022-10-06T14:14:34.072Z,45.86
2022-10-06T14:17:02.439Z,45.69
2022-10-06T14:19:34.113Z,45.41
2022-10-06T14:22:04.738Z,46.01
2022-10-06T14:24:37.287Z,45.02
2022-10-06T14:27:07.592Z,46.43
2022-10-06T14:29:37.954Z,45.99
2022-10-06T14:32:11.539Z,45.32
2022-10-06T14:34:40.581Z,46.81
2022-10-06T14:37:13.296Z,45.79
2022-10-06T14:39:41.356Z,46.20
2022-10-06T14:42:18.743Z,45.24
2022-10-06T14:44:48.189Z,46.05
2022-10-06T14:47:16.776Z,45.88
2022-10-06T14:49:45.265Z,46.21
2022-10-06T14:52:14.531Z,45.03
2022-10-06T14:54:42.968Z,46.20
2022-10-06T14:57:10.934Z,45.96
2022-10-06T14:59:38.867Z,43.08
2022-10-06T15:02:07.527Z,45.18
2022-10-06T15:04:38.264Z,43.86
2022-10-06T15:07:23.712Z,46.01
2022-10-06T15:09:53.045Z,46.27
2022-10-06T15:12:20.980Z,45.21
2022-10-06T15:14:48.926Z,44.50
2022-10-06T15:17:16.849Z,45.14
2022-10-06T15:19:44.792Z,43.98
2022-10-06T15:22:12.762Z,45.33
2022-10-06T15:24:40.669Z,44.17
2022-10-06T15:27:28.144Z,45.74
2022-10-06T15:29:56.792Z,44.32
2022-10-06T15:32:24.711Z,45.83
2022-10-06T15:34:53.016Z,44.46
2022-10-06T15:37:20.955Z,45.36
2022-10-06T15:39:48.938Z,45.61
2022-10-06T15:42:21.798Z,45.24
2022-10-06T15:44:49.956Z,47.82
2022-10-06T15:47:18.584Z,45.90
2022-10-06T15:49:47.026Z,45.35
2022-10-06T15:52:15.427Z,45.63
2022-10-06T15:54:43.731Z,45.97
2022-10-06T15:57:19.501Z,45.71
2022-10-06T15:59:50.366Z,46.21
2022-10-06T16:02:21.034Z,46.09
2022-10-06T16:05:16.441Z,46.51
2022-10-06T16:07:44.456Z,46.60
2022-10-06T16:10:13.498Z,47.53
2022-10-06T16:12:41.425Z,46.72
2022-10-06T16:15:11.639Z,48.42
2022-10-06T16:17:39.612Z,47.20
2022-10-06T16:20:09.266Z,46.95
2022-10-06T16:22:37.578Z,49.09
2022-10-06T16:25:06.366Z,47.86
2022-10-06T16:27:37.650Z,47.44
2022-10-06T16:30:08.516Z,47.74
2022-10-06T16:32:38.168Z,48.11
2022-10-06T16:35:07.275Z,49.60
2022-10-06T16:37:35.189Z,49.29
2022-10-06T16:40:03.142Z,48.65
2022-10-06T16:42:31.034Z,48.69
2022-10-06T16:44:58.946Z,49.89
2022-10-06T16:47:26.826Z,48.91
2022-10-06T16:49:56.088Z,50.16
2022-10-06T16:52:24.137Z,50.87
2022-10-06T16:54:52.048Z,50.98
2022-10-06T16:57:20.017Z,50.63
2022-10-06T16:59:47.984Z,52.30
2022-10-06T17:02:15.900Z,51.33
2022-10-06T17:04:43.912Z,51.96
2022-10-06T17:07:13.282Z,53.97
2022-10-06T17:09:51.078Z,52.74
2022-10-06T17:12:29.135Z,52.56
2022-10-06T17:14:57.029Z,53.62
2022-10-06T17:17:25.103Z,51.30
2022-10-06T17:19:53.868Z,53.21
2022-10-06T17:22:23.269Z,52.56
2022-10-06T17:24:51.232Z,51.23
2022-10-06T17:27:19.171Z,49.55
2022-10-06T17:29:47.106Z,51.28
2022-10-06T17:32:15.195Z,50.08
2022-10-06T17:34:43.120Z,48.02
2022-10-06T17:37:10.992Z,48.75
2022-10-06T17:39:44.768Z,49.59
2022-10-06T17:42:15.214Z,51.78
2022-10-06T17:44:43.135Z,52.48
2022-10-06T17:47:12.614Z,51.66
2022-10-06T17:49:40.511Z,49.84
2022-10-06T17:52:08.525Z,49.55
2022-10-06T17:54:36.432Z,50.37
2022-10-06T17:57:05.739Z,49.72
2022-10-06T17:59:33.872Z,50.39
2022-10-06T18:02:03.682Z,48.09
2022-10-06T18:04:33.788Z,51.72
2022-10-06T18:07:03.223Z,51.59
2022-10-06T18:09:31.250Z,53.45
2022-10-06T18:12:00.110Z,52.55
2022-10-06T18:14:33.264Z,52.94
2022-10-06T18:17:03.806Z,53.38
2022-10-06T18:19:33.913Z,52.99
2022-10-06T18:22:03.902Z,51.36
2022-10-06T18:24:32.669Z,51.83
2022-10-06T18:27:02.156Z,53.69
2022-10-06T18:29:33.188Z,53.50
2022-10-06T18:32:27.229Z,52.55
2022-10-06T18:37:37.630Z,52.20
2022-10-06T18:40:08.738Z,52.15
2022-10-06T18:42:36.938Z,50.28
2022-10-06T18:45:25.580Z,50.39
2022-10-06T18:48:10.923Z,52.13
2022-10-06T18:50:39.453Z,49.66
2022-10-06T18:53:07.433Z,52.36
2022-10-06T18:55:35.387Z,53.11
2022-10-06T18:58:04.755Z,53.42
2022-10-06T19:00:34.405Z,52.07
2022-10-06T19:03:02.363Z,53.65
2022-10-06T19:05:31.027Z,52.24
2022-10-06T19:07:59.071Z,54.76
2022-10-06T19:10:26.987Z,52.92
2022-10-06T19:12:58.223Z,53.52
2022-10-06T19:15:26.160Z,54.08
2022-10-06T19:17:55.405Z,54.19
2022-10-06T19:20:23.545Z,54.79
2022-10-06T19:22:51.440Z,55.36
2022-10-06T19:25:19.650Z,54.53
2022-10-06T19:27:48.277Z,53.60
2022-10-06T19:30:16.303Z,54.03
2022-10-06T19:32:44.279Z,54.97
2022-10-06T19:35:13.680Z,53.04
2022-10-06T19:37:41.989Z,52.43
2022-10-06T19:40:11.423Z,54.10
2022-10-06T19:42:47.497Z,53.09
2022-10-06T19:45:16.496Z,51.73
2022-10-06T19:47:46.457Z,52.54
2022-10-06T19:50:17.480Z,52.73
2022-10-06T19:52:46.040Z,51.75
2022-10-06T19:55:14.035Z,52.13
2022-10-06T19:57:43.085Z,52.51
2022-10-06T20:00:14.704Z,52.00
2022-10-06T20:02:43.894Z,52.24
2022-10-06T20:05:12.938Z,51.65
2022-10-06T20:07:44.152Z,50.94
2022-10-06T20:10:12.915Z,50.78
2022-10-06T20:12:42.122Z,50.86
2022-10-06T20:15:10.996Z,50.40
2022-10-06T20:17:39.362Z,51.39
2022-10-06T20:20:08.039Z,51.12
2022-10-06T20:22:35.962Z,50.65
2022-10-06T20:25:07.050Z,50.11
2022-10-06T20:27:35.129Z,51.00
2022-10-06T20:30:03.058Z,50.03
2022-10-06T20:32:31.091Z,51.33
2022-10-06T20:34:59.096Z,52.36
2022-10-06T20:37:27.424Z,51.46
2022-10-06T20:40:12.667Z,51.95
2022-10-06T20:42:45.059Z,52.63
2022-10-06T20:45:13.020Z,51.80
2022-10-06T20:47:41.143Z,52.04
2022-10-06T20:50:10.457Z,51.72
2022-10-06T20:52:38.734Z,52.74
2022-10-06T20:55:08.600Z,52.01
2022-10-06T20:57:36.874Z,52.43
2022-10-06T21:00:07.310Z,51.56
2022-10-06T21:02:35.480Z,51.48
2022-10-06T21:05:03.493Z,52.89
2022-10-06T21:07:31.652Z,52.63
2022-10-06T21:09:59.578Z,53.79
2022-10-06T21:12:28.472Z,55.10
2022-10-06T21:14:57.471Z,54.72
2022-10-06T21:17:26.740Z,53.83
2022-10-06T21:19:54.702Z,51.51
2022-10-06T21:22:22.691Z,54.48
2022-10-06T21:24:50.562Z,54.26
2022-10-06T21:27:19.023Z,52.94
2022-10-06T21:29:47.714Z,54.98
2022-10-06T21:32:15.723Z,55.48
2022-10-06T21:34:45.009Z,56.71
2022-10-06T21:37:13.850Z,57.45
2022-10-06T21:39:42.169Z,55.49
2022-10-06T21:42:10.175Z,56.27
2022-10-06T21:44:38.108Z,56.93
2022-10-06T21:47:06.427Z,56.98
2022-10-06T21:49:34.511Z,56.43
2022-10-06T21:52:05.460Z,56.84
2022-10-06T21:54:33.575Z,57.30
2022-10-06T21:57:01.933Z,58.54
2022-10-06T21:59:29.972Z,57.61
2022-10-06T22:01:57.839Z,57.53
2022-10-06T22:04:26.095Z,57.00
2022-10-06T22:06:54.051Z,56.59
2022-10-06T22:09:23.714Z,57.52
2022-10-06T22:11:51.705Z,58.02
2022-10-06T22:14:20.560Z,57.62
2022-10-06T22:16:48.551Z,58.69
2022-10-06T22:19:17.870Z,58.08
2022-10-06T22:21:47.469Z,58.53
2022-10-06T22:24:17.142Z,58.65
2022-10-06T22:26:47.492Z,58.02
2022-10-06T22:29:17.265Z,57.33
2022-10-06T22:31:47.258Z,58.15
2022-10-06T22:34:17.226Z,56.66
2022-10-06T22:36:45.294Z,58.53
2022-10-06T22:39:13.228Z,58.20
2022-10-06T22:41:41.287Z,57.89
2022-10-06T22:44:10.397Z,57.69
2022-10-06T22:46:38.783Z,57.80
2022-10-06T22:49:07.060Z,57.35
2022-10-06T22:51:35.039Z,58.06
2022-10-06T22:54:03.121Z,59.55
2022-10-06T22:56:32.432Z,58.75
2022-10-06T22:59:00.819Z,59.17
2022-10-06T23:01:30.874Z,57.34
2022-10-06T23:03:59.314Z,59.10
2022-10-06T23:06:29.738Z,58.85
2022-10-06T23:08:58.245Z,57.45
2022-10-06T23:11:26.225Z,58.03
2022-10-06T23:13:54.245Z,57.65
2022-10-06T23:16:23.745Z,57.53
2022-10-06T23:18:53.269Z,58.00
2022-10-06T23:21:23.950Z,59.89
2022-10-06T23:23:53.339Z,60.52
2022-10-06T23:26:22.392Z,59.88
2022-10-06T23:28:53.398Z,60.00
2022-10-06T23:31:21.567Z,58.25
2022-10-06T23:33:49.821Z,58.69
2022-10-06T23:36:19.780Z,57.92
2022-10-06T23:38:48.595Z,56.83
2022-10-06T23:41:17.072Z,56.25
2022-10-06T23:43:45.097Z,58.33
2022-10-06T23:46:13.629Z,58.79
2022-10-06T23:48:41.751Z,58.89
2022-10-06T23:51:11.563Z,58.27
2022-10-06T23:53:41.565Z,57.77
2022-10-06T23:56:11.187Z,59.58
2022-10-06T23:58:39.362Z,58.62
